sensor_id;sensor_type;location;lat;lon;timestamp;P1;durP1;ratioP1;P2;durP2;ratioP2
67248;SDS011;63247;54.300;18.592;2023-07-16T00:01:55;12.23;;;6.77;;
67248;SDS011;63247;54.300;18.592;2023-07-16T00:04:21;9.68;;;6.80;;
67248;SDS011;63247;54.300;18.592;2023-07-16T00:06:46;12.93;;;7.03;;
67248;SDS011;63247;54.300;18.592;2023-07-16T00:09:12;12.90;;;6.47;;
67248;SDS011;63247;54.300;18.592;2023-07-16T00:11:37;9.93;;;6.93;;
67248;SDS011;63247;54.300;18.592;2023-07-16T00:14:03;11.10;;;7.00;;
67248;SDS011;63247;54.300;18.592;2023-07-16T00:16:28;12.88;;;7.15;;
67248;SDS011;63247;54.300;18.592;2023-07-16T00:18:54;10.50;;;6.93;;
67248;SDS011;63247;54.300;18.592;2023-07-16T00:21:19;9.30;;;6.67;;
67248;SDS011;63247;54.300;18.592;2023-07-16T00:23:45;10.45;;;6.90;;
67248;SDS011;63247;54.300;18.592;2023-07-16T00:26:10;10.17;;;6.90;;
67248;SDS011;63247;54.300;18.592;2023-07-16T00:28:35;13.90;;;7.20;;
67248;SDS011;63247;54.300;18.592;2023-07-16T00:31:01;10.47;;;7.13;;
67248;SDS011;63247;54.300;18.592;2023-07-16T00:33:26;12.43;;;7.37;;
67248;SDS011;63247;54.300;18.592;2023-07-16T00:35:52;19.17;;;7.30;;
67248;SDS011;63247;54.300;18.592;2023-07-16T00:38:17;10.93;;;7.87;;
67248;SDS011;63247;54.300;18.592;2023-07-16T00:40:43;12.77;;;7.40;;
67248;SDS011;63247;54.300;18.592;2023-07-16T00:43:09;11.18;;;7.13;;
67248;SDS011;63247;54.300;18.592;2023-07-16T00:45:35;12.65;;;7.45;;
67248;SDS011;63247;54.300;18.592;2023-07-16T00:48:01;11.85;;;7.68;;
67248;SDS011;63247;54.300;18.592;2023-07-16T00:50:26;11.32;;;7.82;;
67248;SDS011;63247;54.300;18.592;2023-07-16T00:52:52;11.27;;;8.07;;
67248;SDS011;63247;54.300;18.592;2023-07-16T00:55:18;10.50;;;7.80;;
67248;SDS011;63247;54.300;18.592;2023-07-16T00:57:43;10.00;;;7.73;;
67248;SDS011;63247;54.300;18.592;2023-07-16T01:00:10;12.30;;;8.30;;
67248;SDS011;63247;54.300;18.592;2023-07-16T01:02:36;11.23;;;8.25;;
67248;SDS011;63247;54.300;18.592;2023-07-16T01:05:02;12.83;;;8.13;;
67248;SDS011;63247;54.300;18.592;2023-07-16T01:07:28;12.35;;;7.82;;
67248;SDS011;63247;54.300;18.592;2023-07-16T01:09:55;13.50;;;7.55;;
67248;SDS011;63247;54.300;18.592;2023-07-16T01:12:23;15.45;;;8.40;;
67248;SDS011;63247;54.300;18.592;2023-07-16T01:14:49;13.03;;;8.20;;
67248;SDS011;63247;54.300;18.592;2023-07-16T01:17:16;13.15;;;8.18;;
67248;SDS011;63247;54.300;18.592;2023-07-16T01:19:42;12.10;;;7.90;;
67248;SDS011;63247;54.300;18.592;2023-07-16T01:27:42;13.63;;;7.93;;
67248;SDS011;63247;54.300;18.592;2023-07-16T01:30:21;15.43;;;8.68;;
67248;SDS011;63247;54.300;18.592;2023-07-16T01:32:47;13.30;;;8.63;;
67248;SDS011;63247;54.300;18.592;2023-07-16T01:35:13;12.35;;;8.63;;
67248;SDS011;63247;54.300;18.592;2023-07-16T01:37:40;15.75;;;8.95;;
67248;SDS011;63247;54.300;18.592;2023-07-16T01:40:07;13.20;;;8.70;;
67248;SDS011;63247;54.300;18.592;2023-07-16T01:42:36;13.38;;;9.00;;
67248;SDS011;63247;54.300;18.592;2023-07-16T01:45:02;13.37;;;8.83;;
67248;SDS011;63247;54.300;18.592;2023-07-16T01:49:53;13.60;;;9.20;;
67248;SDS011;63247;54.300;18.592;2023-07-16T01:52:19;15.38;;;8.85;;
67248;SDS011;63247;54.300;18.592;2023-07-16T01:54:44;12.13;;;9.00;;
67248;SDS011;63247;54.300;18.592;2023-07-16T01:57:10;13.83;;;8.93;;
67248;SDS011;63247;54.300;18.592;2023-07-16T01:59:35;14.10;;;8.80;;
67248;SDS011;63247;54.300;18.592;2023-07-16T02:02:01;13.50;;;8.90;;
67248;SDS011;63247;54.300;18.592;2023-07-16T02:04:26;13.13;;;8.88;;
67248;SDS011;63247;54.300;18.592;2023-07-16T02:06:51;15.83;;;9.07;;
67248;SDS011;63247;54.300;18.592;2023-07-16T02:09:17;15.40;;;9.03;;
67248;SDS011;63247;54.300;18.592;2023-07-16T02:11:42;15.63;;;9.00;;
67248;SDS011;63247;54.300;18.592;2023-07-16T02:14:08;13.67;;;8.43;;
67248;SDS011;63247;54.300;18.592;2023-07-16T02:16:34;14.25;;;9.30;;
67248;SDS011;63247;54.300;18.592;2023-07-16T02:18:59;13.83;;;9.13;;
67248;SDS011;63247;54.300;18.592;2023-07-16T02:21:25;12.63;;;9.07;;
67248;SDS011;63247;54.300;18.592;2023-07-16T02:23:50;15.40;;;9.05;;
67248;SDS011;63247;54.300;18.592;2023-07-16T02:26:15;13.70;;;8.70;;
67248;SDS011;63247;54.300;18.592;2023-07-16T02:28:41;14.93;;;9.10;;
67248;SDS011;63247;54.300;18.592;2023-07-16T02:31:06;14.43;;;9.20;;
67248;SDS011;63247;54.300;18.592;2023-07-16T02:33:31;12.87;;;9.13;;
67248;SDS011;63247;54.300;18.592;2023-07-16T02:35:57;13.13;;;9.30;;
67248;SDS011;63247;54.300;18.592;2023-07-16T02:38:22;13.48;;;9.30;;
67248;SDS011;63247;54.300;18.592;2023-07-16T02:40:48;13.43;;;8.90;;
67248;SDS011;63247;54.300;18.592;2023-07-16T02:43:14;14.37;;;9.30;;
67248;SDS011;63247;54.300;18.592;2023-07-16T02:45:39;12.88;;;9.48;;
67248;SDS011;63247;54.300;18.592;2023-07-16T02:48:05;14.57;;;9.57;;
67248;SDS011;63247;54.300;18.592;2023-07-16T02:50:35;12.85;;;9.45;;
67248;SDS011;63247;54.300;18.592;2023-07-16T02:53:03;14.65;;;9.55;;
67248;SDS011;63247;54.300;18.592;2023-07-16T02:55:28;14.68;;;9.63;;
67248;SDS011;63247;54.300;18.592;2023-07-16T02:57:54;13.03;;;9.53;;
67248;SDS011;63247;54.300;18.592;2023-07-16T03:00:20;13.65;;;9.88;;
67248;SDS011;63247;54.300;18.592;2023-07-16T03:02:45;15.77;;;9.45;;
67248;SDS011;63247;54.300;18.592;2023-07-16T03:05:10;15.57;;;9.27;;
67248;SDS011;63247;54.300;18.592;2023-07-16T03:07:36;15.20;;;9.17;;
67248;SDS011;63247;54.300;18.592;2023-07-16T03:10:01;16.50;;;9.27;;
67248;SDS011;63247;54.300;18.592;2023-07-16T03:12:27;14.23;;;9.27;;
67248;SDS011;63247;54.300;18.592;2023-07-16T03:14:52;12.07;;;9.10;;
67248;SDS011;63247;54.300;18.592;2023-07-16T03:17:19;15.48;;;9.48;;
67248;SDS011;63247;54.300;18.592;2023-07-16T03:19:46;12.77;;;9.30;;
67248;SDS011;63247;54.300;18.592;2023-07-16T03:22:11;14.82;;;9.40;;
67248;SDS011;63247;54.300;18.592;2023-07-16T03:24:37;14.87;;;9.30;;
67248;SDS011;63247;54.300;18.592;2023-07-16T03:27:02;14.33;;;9.77;;
67248;SDS011;63247;54.300;18.592;2023-07-16T03:29:28;15.48;;;9.80;;
67248;SDS011;63247;54.300;18.592;2023-07-16T03:31:53;14.73;;;9.60;;
67248;SDS011;63247;54.300;18.592;2023-07-16T03:34:19;12.30;;;9.33;;
67248;SDS011;63247;54.300;18.592;2023-07-16T03:36:44;16.30;;;9.50;;
67248;SDS011;63247;54.300;18.592;2023-07-16T03:39:09;12.83;;;9.77;;
67248;SDS011;63247;54.300;18.592;2023-07-16T03:41:35;15.70;;;9.80;;
67248;SDS011;63247;54.300;18.592;2023-07-16T03:44:00;15.90;;;9.60;;
67248;SDS011;63247;54.300;18.592;2023-07-16T03:46:25;13.40;;;9.63;;
67248;SDS011;63247;54.300;18.592;2023-07-16T03:48:53;14.37;;;10.00;;
67248;SDS011;63247;54.300;18.592;2023-07-16T03:51:18;15.23;;;10.02;;
67248;SDS011;63247;54.300;18.592;2023-07-16T03:53:44;12.83;;;9.67;;
67248;SDS011;63247;54.300;18.592;2023-07-16T03:56:09;15.40;;;9.80;;
67248;SDS011;63247;54.300;18.592;2023-07-16T03:58:35;14.10;;;9.87;;
67248;SDS011;63247;54.300;18.592;2023-07-16T04:01:00;15.10;;;9.75;;
67248;SDS011;63247;54.300;18.592;2023-07-16T04:03:25;13.20;;;9.38;;
67248;SDS011;63247;54.300;18.592;2023-07-16T04:05:51;12.40;;;9.43;;
67248;SDS011;63247;54.300;18.592;2023-07-16T04:08:16;12.90;;;9.23;;
67248;SDS011;63247;54.300;18.592;2023-07-16T04:10:41;13.57;;;9.50;;
67248;SDS011;63247;54.300;18.592;2023-07-16T04:13:07;14.47;;;9.60;;
67248;SDS011;63247;54.300;18.592;2023-07-16T04:15:32;13.85;;;8.50;;
67248;SDS011;63247;54.300;18.592;2023-07-16T04:17:58;11.93;;;9.37;;
67248;SDS011;63247;54.300;18.592;2023-07-16T04:20:23;14.50;;;9.27;;
67248;SDS011;63247;54.300;18.592;2023-07-16T04:22:49;14.03;;;9.23;;
67248;SDS011;63247;54.300;18.592;2023-07-16T04:25:14;15.57;;;9.40;;
67248;SDS011;63247;54.300;18.592;2023-07-16T04:27:40;16.37;;;9.20;;
67248;SDS011;63247;54.300;18.592;2023-07-16T04:30:07;11.30;;;8.80;;
67248;SDS011;63247;54.300;18.592;2023-07-16T04:32:33;12.57;;;9.18;;
67248;SDS011;63247;54.300;18.592;2023-07-16T04:34:58;12.57;;;9.23;;
67248;SDS011;63247;54.300;18.592;2023-07-16T04:37:24;12.43;;;8.90;;
67248;SDS011;63247;54.300;18.592;2023-07-16T04:39:49;14.33;;;8.87;;
67248;SDS011;63247;54.300;18.592;2023-07-16T04:42:15;11.43;;;8.68;;
67248;SDS011;63247;54.300;18.592;2023-07-16T04:44:41;11.83;;;8.83;;
67248;SDS011;63247;54.300;18.592;2023-07-16T04:47:07;14.02;;;9.18;;
67248;SDS011;63247;54.300;18.592;2023-07-16T04:49:34;12.40;;;8.80;;
67248;SDS011;63247;54.300;18.592;2023-07-16T04:52:01;11.80;;;9.00;;
67248;SDS011;63247;54.300;18.592;2023-07-16T04:54:26;17.10;;;9.27;;
67248;SDS011;63247;54.300;18.592;2023-07-16T04:56:51;13.60;;;9.10;;
67248;SDS011;63247;54.300;18.592;2023-07-16T04:59:17;14.47;;;9.13;;
67248;SDS011;63247;54.300;18.592;2023-07-16T05:01:42;12.63;;;9.15;;
67248;SDS011;63247;54.300;18.592;2023-07-16T05:04:08;13.43;;;9.03;;
67248;SDS011;63247;54.300;18.592;2023-07-16T05:06:33;12.37;;;9.40;;
67248;SDS011;63247;54.300;18.592;2023-07-16T05:08:59;12.47;;;9.30;;
67248;SDS011;63247;54.300;18.592;2023-07-16T05:11:24;14.15;;;9.35;;
67248;SDS011;63247;54.300;18.592;2023-07-16T05:13:50;14.17;;;9.17;;
67248;SDS011;63247;54.300;18.592;2023-07-16T05:16:16;13.95;;;9.48;;
67248;SDS011;63247;54.300;18.592;2023-07-16T05:18:41;11.93;;;8.70;;
67248;SDS011;63247;54.300;18.592;2023-07-16T05:21:06;13.43;;;9.10;;
67248;SDS011;63247;54.300;18.592;2023-07-16T05:23:32;12.10;;;9.10;;
67248;SDS011;63247;54.300;18.592;2023-07-16T05:25:57;12.70;;;9.30;;
67248;SDS011;63247;54.300;18.592;2023-07-16T05:28:24;14.38;;;9.90;;
67248;SDS011;63247;54.300;18.592;2023-07-16T05:30:57;15.93;;;9.40;;
67248;SDS011;63247;54.300;18.592;2023-07-16T05:33:23;14.93;;;9.60;;
67248;SDS011;63247;54.300;18.592;2023-07-16T05:35:48;14.77;;;9.27;;
67248;SDS011;63247;54.300;18.592;2023-07-16T05:38:15;11.65;;;8.77;;
67248;SDS011;63247;54.300;18.592;2023-07-16T05:40:40;13.60;;;9.20;;
67248;SDS011;63247;54.300;18.592;2023-07-16T05:43:06;16.53;;;9.53;;
67248;SDS011;63247;54.300;18.592;2023-07-16T05:45:32;13.27;;;9.50;;
67248;SDS011;63247;54.300;18.592;2023-07-16T05:47:57;14.57;;;9.33;;
67248;SDS011;63247;54.300;18.592;2023-07-16T05:50:22;12.90;;;9.30;;
67248;SDS011;63247;54.300;18.592;2023-07-16T05:52:48;11.40;;;9.57;;
67248;SDS011;63247;54.300;18.592;2023-07-16T05:55:13;13.33;;;9.40;;
67248;SDS011;63247;54.300;18.592;2023-07-16T05:57:39;12.90;;;9.13;;
67248;SDS011;63247;54.300;18.592;2023-07-16T06:00:05;13.17;;;9.10;;
67248;SDS011;63247;54.300;18.592;2023-07-16T06:02:32;16.08;;;9.32;;
67248;SDS011;63247;54.300;18.592;2023-07-16T06:04:57;12.27;;;8.93;;
67248;SDS011;63247;54.300;18.592;2023-07-16T06:07:22;12.23;;;9.13;;
67248;SDS011;63247;54.300;18.592;2023-07-16T06:09:48;12.80;;;9.68;;
67248;SDS011;63247;54.300;18.592;2023-07-16T06:12:13;14.03;;;8.60;;
67248;SDS011;63247;54.300;18.592;2023-07-16T06:14:39;11.77;;;8.93;;
67248;SDS011;63247;54.300;18.592;2023-07-16T06:17:04;11.25;;;8.55;;
67248;SDS011;63247;54.300;18.592;2023-07-16T06:19:30;10.73;;;8.63;;
67248;SDS011;63247;54.300;18.592;2023-07-16T06:21:55;13.37;;;9.20;;
67248;SDS011;63247;54.300;18.592;2023-07-16T06:24:21;12.90;;;8.70;;
67248;SDS011;63247;54.300;18.592;2023-07-16T06:26:46;13.27;;;9.03;;
67248;SDS011;63247;54.300;18.592;2023-07-16T06:29:12;11.13;;;8.93;;
67248;SDS011;63247;54.300;18.592;2023-07-16T06:31:38;12.10;;;9.20;;
67248;SDS011;63247;54.300;18.592;2023-07-16T06:34:04;11.02;;;8.73;;
67248;SDS011;63247;54.300;18.592;2023-07-16T06:36:29;14.50;;;9.10;;
67248;SDS011;63247;54.300;18.592;2023-07-16T06:38:54;16.10;;;9.40;;
67248;SDS011;63247;54.300;18.592;2023-07-16T06:41:20;11.20;;;9.33;;
67248;SDS011;63247;54.300;18.592;2023-07-16T06:43:46;11.45;;;9.00;;
67248;SDS011;63247;54.300;18.592;2023-07-16T06:46:11;9.83;;;8.83;;
67248;SDS011;63247;54.300;18.592;2023-07-16T06:48:36;14.67;;;9.13;;
67248;SDS011;63247;54.300;18.592;2023-07-16T06:51:02;10.67;;;8.80;;
67248;SDS011;63247;54.300;18.592;2023-07-16T06:53:27;11.00;;;8.80;;
67248;SDS011;63247;54.300;18.592;2023-07-16T06:55:53;9.17;;;8.27;;
67248;SDS011;63247;54.300;18.592;2023-07-16T06:58:18;10.47;;;8.93;;
67248;SDS011;63247;54.300;18.592;2023-07-16T07:00:44;10.20;;;8.10;;
67248;SDS011;63247;54.300;18.592;2023-07-16T07:03:09;9.18;;;8.10;;
67248;SDS011;63247;54.300;18.592;2023-07-16T07:05:35;11.43;;;8.23;;
67248;SDS011;63247;54.300;18.592;2023-07-16T07:08:01;10.20;;;8.50;;
67248;SDS011;63247;54.300;18.592;2023-07-16T07:10:28;10.00;;;8.20;;
67248;SDS011;63247;54.300;18.592;2023-07-16T07:12:53;8.90;;;8.00;;
67248;SDS011;63247;54.300;18.592;2023-07-16T07:15:18;9.30;;;7.77;;
67248;SDS011;63247;54.300;18.592;2023-07-16T07:17:44;9.53;;;8.00;;
67248;SDS011;63247;54.300;18.592;2023-07-16T07:20:11;9.88;;;7.97;;
67248;SDS011;63247;54.300;18.592;2023-07-16T07:22:37;8.70;;;7.80;;
67248;SDS011;63247;54.300;18.592;2023-07-16T07:25:03;10.90;;;8.17;;
67248;SDS011;63247;54.300;18.592;2023-07-16T07:27:29;8.77;;;7.90;;
67248;SDS011;63247;54.300;18.592;2023-07-16T07:29:55;12.43;;;7.47;;
67248;SDS011;63247;54.300;18.592;2023-07-16T07:32:20;10.90;;;7.50;;
67248;SDS011;63247;54.300;18.592;2023-07-16T07:34:46;10.07;;;8.10;;
67248;SDS011;63247;54.300;18.592;2023-07-16T07:37:11;10.63;;;7.63;;
67248;SDS011;63247;54.300;18.592;2023-07-16T07:39:37;9.88;;;7.63;;
67248;SDS011;63247;54.300;18.592;2023-07-16T07:42:02;10.00;;;8.20;;
67248;SDS011;63247;54.300;18.592;2023-07-16T07:44:28;9.90;;;8.27;;
67248;SDS011;63247;54.300;18.592;2023-07-16T07:46:53;12.43;;;9.23;;
67248;SDS011;63247;54.300;18.592;2023-07-16T07:49:19;11.77;;;8.43;;
67248;SDS011;63247;54.300;18.592;2023-07-16T07:51:44;9.10;;;8.20;;
67248;SDS011;63247;54.300;18.592;2023-07-16T07:54:09;8.97;;;8.10;;
67248;SDS011;63247;54.300;18.592;2023-07-16T07:56:35;14.93;;;8.13;;
67248;SDS011;63247;54.300;18.592;2023-07-16T07:59:00;10.20;;;7.47;;
67248;SDS011;63247;54.300;18.592;2023-07-16T08:01:25;9.17;;;7.10;;
67248;SDS011;63247;54.300;18.592;2023-07-16T08:03:52;9.27;;;6.97;;
67248;SDS011;63247;54.300;18.592;2023-07-16T08:06:17;8.50;;;6.60;;
67248;SDS011;63247;54.300;18.592;2023-07-16T08:08:42;9.20;;;6.50;;
67248;SDS011;63247;54.300;18.592;2023-07-16T08:11:08;9.17;;;5.93;;
67248;SDS011;63247;54.300;18.592;2023-07-16T08:13:33;6.90;;;6.20;;
67248;SDS011;63247;54.300;18.592;2023-07-16T08:15:58;8.23;;;6.18;;
67248;SDS011;63247;54.300;18.592;2023-07-16T08:18:24;6.07;;;5.47;;
67248;SDS011;63247;54.300;18.592;2023-07-16T08:20:49;6.03;;;4.93;;
67248;SDS011;63247;54.300;18.592;2023-07-16T08:23:14;6.57;;;5.33;;
67248;SDS011;63247;54.300;18.592;2023-07-16T08:25:40;10.77;;;5.37;;
67248;SDS011;63247;54.300;18.592;2023-07-16T08:28:05;6.60;;;5.13;;
67248;SDS011;63247;54.300;18.592;2023-07-16T08:30:32;7.13;;;5.23;;
67248;SDS011;63247;54.300;18.592;2023-07-16T08:32:58;6.43;;;5.20;;
67248;SDS011;63247;54.300;18.592;2023-07-16T08:35:23;5.83;;;5.03;;
67248;SDS011;63247;54.300;18.592;2023-07-16T08:37:49;11.37;;;5.67;;
67248;SDS011;63247;54.300;18.592;2023-07-16T08:40:14;5.47;;;4.87;;
67248;SDS011;63247;54.300;18.592;2023-07-16T08:42:40;7.50;;;4.60;;
67248;SDS011;63247;54.300;18.592;2023-07-16T08:45:11;8.02;;;4.45;;
67248;SDS011;63247;54.300;18.592;2023-07-16T08:47:37;5.75;;;4.57;;
67248;SDS011;63247;54.300;18.592;2023-07-16T08:50:03;6.50;;;4.40;;
67248;SDS011;63247;54.300;18.592;2023-07-16T08:52:29;6.88;;;4.30;;
67248;SDS011;63247;54.300;18.592;2023-07-16T08:54:54;7.93;;;4.33;;
67248;SDS011;63247;54.300;18.592;2023-07-16T08:57:20;5.50;;;4.05;;
67248;SDS011;63247;54.300;18.592;2023-07-16T08:59:47;6.25;;;4.07;;
67248;SDS011;63247;54.300;18.592;2023-07-16T09:02:14;5.80;;;4.20;;
67248;SDS011;63247;54.300;18.592;2023-07-16T09:04:40;6.72;;;4.10;;
67248;SDS011;63247;54.300;18.592;2023-07-16T09:07:06;8.20;;;4.43;;
67248;SDS011;63247;54.300;18.592;2023-07-16T09:09:31;6.07;;;4.10;;
67248;SDS011;63247;54.300;18.592;2023-07-16T09:11:57;6.67;;;4.30;;
67248;SDS011;63247;54.300;18.592;2023-07-16T09:14:22;5.70;;;3.90;;
67248;SDS011;63247;54.300;18.592;2023-07-16T09:16:48;6.00;;;3.93;;
67248;SDS011;63247;54.300;18.592;2023-07-16T09:19:14;6.45;;;4.10;;
67248;SDS011;63247;54.300;18.592;2023-07-16T09:21:42;6.43;;;3.90;;
67248;SDS011;63247;54.300;18.592;2023-07-16T09:24:08;5.03;;;3.70;;
67248;SDS011;63247;54.300;18.592;2023-07-16T09:26:36;5.70;;;4.10;;
67248;SDS011;63247;54.300;18.592;2023-07-16T09:29:05;7.95;;;4.18;;
67248;SDS011;63247;54.300;18.592;2023-07-16T09:31:31;6.93;;;3.83;;
67248;SDS011;63247;54.300;18.592;2023-07-16T09:33:57;5.30;;;3.90;;
67248;SDS011;63247;54.300;18.592;2023-07-16T09:36:26;6.30;;;3.80;;
67248;SDS011;63247;54.300;18.592;2023-07-16T09:38:55;5.38;;;4.00;;
67248;SDS011;63247;54.300;18.592;2023-07-16T09:41:22;5.50;;;4.00;;
67248;SDS011;63247;54.300;18.592;2023-07-16T09:43:48;6.23;;;4.00;;
67248;SDS011;63247;54.300;18.592;2023-07-16T09:46:13;8.85;;;4.60;;
67248;SDS011;63247;54.300;18.592;2023-07-16T09:48:39;6.47;;;4.10;;
67248;SDS011;63247;54.300;18.592;2023-07-16T09:51:04;5.10;;;3.97;;
67248;SDS011;63247;54.300;18.592;2023-07-16T09:53:32;5.50;;;3.95;;
67248;SDS011;63247;54.300;18.592;2023-07-16T09:56:00;5.38;;;3.83;;
67248;SDS011;63247;54.300;18.592;2023-07-16T09:58:27;9.18;;;3.70;;
67248;SDS011;63247;54.300;18.592;2023-07-16T10:00:53;5.87;;;3.70;;
67248;SDS011;63247;54.300;18.592;2023-07-16T10:03:19;5.50;;;4.03;;
67248;SDS011;63247;54.300;18.592;2023-07-16T10:05:45;6.70;;;3.90;;
67248;SDS011;63247;54.300;18.592;2023-07-16T10:08:17;5.20;;;3.58;;
67248;SDS011;63247;54.300;18.592;2023-07-16T10:10:48;5.77;;;3.53;;
67248;SDS011;63247;54.300;18.592;2023-07-16T10:13:18;6.18;;;3.70;;
67248;SDS011;63247;54.300;18.592;2023-07-16T10:15:58;7.13;;;3.38;;
67248;SDS011;63247;54.300;18.592;2023-07-16T10:18:27;4.60;;;3.40;;
67248;SDS011;63247;54.300;18.592;2023-07-16T10:21:05;6.00;;;3.50;;
67248;SDS011;63247;54.300;18.592;2023-07-16T10:23:39;5.63;;;3.47;;
67248;SDS011;63247;54.300;18.592;2023-07-16T10:26:12;4.85;;;3.35;;
67248;SDS011;63247;54.300;18.592;2023-07-16T10:28:39;5.93;;;3.88;;
67248;SDS011;63247;54.300;18.592;2023-07-16T10:31:05;8.27;;;3.73;;
67248;SDS011;63247;54.300;18.592;2023-07-16T10:33:33;6.15;;;4.18;;
67248;SDS011;63247;54.300;18.592;2023-07-16T10:35:59;5.63;;;3.97;;
67248;SDS011;63247;54.300;18.592;2023-07-16T10:38:24;6.60;;;4.10;;
67248;SDS011;63247;54.300;18.592;2023-07-16T10:40:50;5.97;;;4.05;;
67248;SDS011;63247;54.300;18.592;2023-07-16T10:43:16;9.10;;;4.40;;
67248;SDS011;63247;54.300;18.592;2023-07-16T10:45:41;8.32;;;4.20;;
67248;SDS011;63247;54.300;18.592;2023-07-16T10:48:07;5.73;;;4.00;;
67248;SDS011;63247;54.300;18.592;2023-07-16T10:50:33;6.22;;;4.45;;
67248;SDS011;63247;54.300;18.592;2023-07-16T10:52:59;7.27;;;4.20;;
67248;SDS011;63247;54.300;18.592;2023-07-16T10:55:26;6.35;;;4.43;;
67248;SDS011;63247;54.300;18.592;2023-07-16T10:57:53;6.75;;;4.30;;
67248;SDS011;63247;54.300;18.592;2023-07-16T11:00:19;7.03;;;4.18;;
67248;SDS011;63247;54.300;18.592;2023-07-16T11:02:46;6.07;;;3.50;;
67248;SDS011;63247;54.300;18.592;2023-07-16T11:05:15;5.20;;;3.60;;
67248;SDS011;63247;54.300;18.592;2023-07-16T11:07:48;4.82;;;3.50;;
67248;SDS011;63247;54.300;18.592;2023-07-16T11:10:15;7.15;;;3.50;;
67248;SDS011;63247;54.300;18.592;2023-07-16T11:12:41;5.82;;;3.60;;
67248;SDS011;63247;54.300;18.592;2023-07-16T11:15:07;5.27;;;3.50;;
67248;SDS011;63247;54.300;18.592;2023-07-16T11:17:33;6.90;;;3.45;;
67248;SDS011;63247;54.300;18.592;2023-07-16T11:19:59;7.03;;;3.70;;
67248;SDS011;63247;54.300;18.592;2023-07-16T11:22:27;5.55;;;3.40;;
67248;SDS011;63247;54.300;18.592;2023-07-16T11:24:53;5.60;;;3.87;;
67248;SDS011;63247;54.300;18.592;2023-07-16T11:27:22;6.57;;;3.63;;
67248;SDS011;63247;54.300;18.592;2023-07-16T11:29:51;5.60;;;3.80;;
67248;SDS011;63247;54.300;18.592;2023-07-16T11:35:01;5.65;;;3.60;;
67248;SDS011;63247;54.300;18.592;2023-07-16T11:37:29;6.03;;;3.50;;
67248;SDS011;63247;54.300;18.592;2023-07-16T11:39:56;6.40;;;3.75;;
67248;SDS011;63247;54.300;18.592;2023-07-16T11:42:23;5.88;;;4.05;;
67248;SDS011;63247;54.300;18.592;2023-07-16T11:44:52;7.60;;;4.03;;
67248;SDS011;63247;54.300;18.592;2023-07-16T11:47:19;5.20;;;3.88;;
67248;SDS011;63247;54.300;18.592;2023-07-16T11:49:45;6.80;;;4.17;;
67248;SDS011;63247;54.300;18.592;2023-07-16T11:52:10;7.80;;;4.20;;
67248;SDS011;63247;54.300;18.592;2023-07-16T11:54:36;6.03;;;4.37;;
67248;SDS011;63247;54.300;18.592;2023-07-16T11:57:01;6.60;;;4.30;;
67248;SDS011;63247;54.300;18.592;2023-07-16T11:59:27;6.17;;;3.87;;
67248;SDS011;63247;54.300;18.592;2023-07-16T12:01:52;5.70;;;4.30;;
67248;SDS011;63247;54.300;18.592;2023-07-16T12:04:19;9.57;;;5.70;;
67248;SDS011;63247;54.300;18.592;2023-07-16T12:06:45;8.30;;;5.53;;
67248;SDS011;63247;54.300;18.592;2023-07-16T12:09:11;6.65;;;5.15;;
67248;SDS011;63247;54.300;18.592;2023-07-16T12:11:36;7.68;;;5.18;;
67248;SDS011;63247;54.300;18.592;2023-07-16T12:14:03;7.00;;;4.57;;
67248;SDS011;63247;54.300;18.592;2023-07-16T12:16:29;6.00;;;4.60;;
67248;SDS011;63247;54.300;18.592;2023-07-16T12:18:54;7.50;;;4.40;;
67248;SDS011;63247;54.300;18.592;2023-07-16T12:21:20;6.70;;;4.47;;
67248;SDS011;63247;54.300;18.592;2023-07-16T12:23:45;5.90;;;4.40;;
67248;SDS011;63247;54.300;18.592;2023-07-16T12:26:10;6.53;;;4.17;;
67248;SDS011;63247;54.300;18.592;2023-07-16T12:28:36;6.53;;;4.43;;
67248;SDS011;63247;54.300;18.592;2023-07-16T12:31:02;5.57;;;4.40;;
67248;SDS011;63247;54.300;18.592;2023-07-16T12:33:28;5.83;;;4.40;;
67248;SDS011;63247;54.300;18.592;2023-07-16T12:35:53;6.28;;;4.22;;
67248;SDS011;63247;54.300;18.592;2023-07-16T12:38:19;5.90;;;4.13;;
67248;SDS011;63247;54.300;18.592;2023-07-16T12:40:44;5.90;;;4.40;;
67248;SDS011;63247;54.300;18.592;2023-07-16T12:43:10;5.53;;;4.38;;
67248;SDS011;63247;54.300;18.592;2023-07-16T12:45:35;5.07;;;3.87;;
67248;SDS011;63247;54.300;18.592;2023-07-16T12:48:01;7.00;;;4.13;;
67248;SDS011;63247;54.300;18.592;2023-07-16T12:50:26;5.17;;;3.90;;
67248;SDS011;63247;54.300;18.592;2023-07-16T12:52:54;5.10;;;3.90;;
67248;SDS011;63247;54.300;18.592;2023-07-16T12:55:19;5.20;;;3.70;;
67248;SDS011;63247;54.300;18.592;2023-07-16T12:57:44;5.60;;;3.90;;
67248;SDS011;63247;54.300;18.592;2023-07-16T13:00:10;15.07;;;9.17;;
67248;SDS011;63247;54.300;18.592;2023-07-16T13:02:36;6.57;;;4.30;;
67248;SDS011;63247;54.300;18.592;2023-07-16T13:05:02;5.43;;;3.90;;
67248;SDS011;63247;54.300;18.592;2023-07-16T13:07:28;5.85;;;4.22;;
67248;SDS011;63247;54.300;18.592;2023-07-16T13:09:53;5.83;;;4.00;;
67248;SDS011;63247;54.300;18.592;2023-07-16T13:12:19;5.60;;;3.77;;
67248;SDS011;63247;54.300;18.592;2023-07-16T13:14:44;6.57;;;4.07;;
67248;SDS011;63247;54.300;18.592;2023-07-16T13:17:10;6.17;;;4.13;;
67248;SDS011;63247;54.300;18.592;2023-07-16T13:19:35;8.23;;;4.60;;
67248;SDS011;63247;54.300;18.592;2023-07-16T13:22:00;6.55;;;4.50;;
67248;SDS011;63247;54.300;18.592;2023-07-16T13:24:26;9.07;;;4.33;;
67248;SDS011;63247;54.300;18.592;2023-07-16T13:26:51;8.20;;;4.30;;
67248;SDS011;63247;54.300;18.592;2023-07-16T13:29:17;6.90;;;4.37;;
67248;SDS011;63247;54.300;18.592;2023-07-16T13:31:42;6.87;;;4.30;;
67248;SDS011;63247;54.300;18.592;2023-07-16T13:34:07;7.43;;;4.47;;
67248;SDS011;63247;54.300;18.592;2023-07-16T13:36:33;6.47;;;4.30;;
67248;SDS011;63247;54.300;18.592;2023-07-16T13:38:58;6.13;;;4.30;;
67248;SDS011;63247;54.300;18.592;2023-07-16T13:41:23;5.97;;;4.30;;
67248;SDS011;63247;54.300;18.592;2023-07-16T13:43:49;6.70;;;4.30;;
67248;SDS011;63247;54.300;18.592;2023-07-16T13:46:14;6.87;;;4.70;;
67248;SDS011;63247;54.300;18.592;2023-07-16T13:48:40;6.90;;;4.43;;
67248;SDS011;63247;54.300;18.592;2023-07-16T13:51:05;8.33;;;3.87;;
67248;SDS011;63247;54.300;18.592;2023-07-16T13:53:31;5.60;;;4.20;;
67248;SDS011;63247;54.300;18.592;2023-07-16T13:55:56;7.53;;;4.22;;
67248;SDS011;63247;54.300;18.592;2023-07-16T13:58:21;8.67;;;4.60;;
67248;SDS011;63247;54.300;18.592;2023-07-16T14:00:47;11.13;;;4.47;;
67248;SDS011;63247;54.300;18.592;2023-07-16T14:03:12;6.97;;;4.47;;
67248;SDS011;63247;54.300;18.592;2023-07-16T14:05:37;6.80;;;4.17;;
67248;SDS011;63247;54.300;18.592;2023-07-16T14:08:05;7.43;;;3.90;;
67248;SDS011;63247;54.300;18.592;2023-07-16T14:10:30;6.55;;;3.50;;
67248;SDS011;63247;54.300;18.592;2023-07-16T14:12:56;5.33;;;3.37;;
67248;SDS011;63247;54.300;18.592;2023-07-16T14:15:21;8.93;;;3.13;;
67248;SDS011;63247;54.300;18.592;2023-07-16T14:17:46;4.63;;;2.70;;
67248;SDS011;63247;54.300;18.592;2023-07-16T14:20:12;5.18;;;2.90;;
67248;SDS011;63247;54.300;18.592;2023-07-16T14:22:37;5.50;;;2.90;;
67248;SDS011;63247;54.300;18.592;2023-07-16T14:25:03;4.30;;;2.60;;
67248;SDS011;63247;54.300;18.592;2023-07-16T14:27:29;5.20;;;2.60;;
67248;SDS011;63247;54.300;18.592;2023-07-16T14:29:56;5.10;;;2.50;;
67248;SDS011;63247;54.300;18.592;2023-07-16T14:32:22;5.37;;;2.63;;